createdAt,value
2023-08-24T00:01:04.734Z,4.28
2023-08-24T00:05:19.667Z,4.53
2023-08-24T00:09:32.260Z,4.57
2023-08-24T00:13:51.270Z,4.57
2023-08-24T00:22:16.963Z,4.50
2023-08-24T00:26:29.476Z,4.70
2023-08-24T00:30:42.470Z,4.50
2023-08-24T00:34:54.979Z,4.82
2023-08-24T00:39:08.334Z,4.20
2023-08-24T00:43:24.016Z,4.38
2023-08-24T00:47:37.096Z,4.65
2023-08-24T00:51:49.812Z,4.57
2023-08-24T00:56:02.552Z,4.90
2023-08-24T01:00:15.787Z,4.68
2023-08-24T01:04:28.223Z,4.80
2023-08-24T01:08:41.235Z,4.53
2023-08-24T01:13:06.494Z,4.80
2023-08-24T01:17:25.924Z,4.65
2023-08-24T01:21:38.897Z,4.63
2023-08-24T01:25:55.866Z,4.47
2023-08-24T01:30:09.766Z,5.03
2023-08-24T01:34:22.284Z,5.35
2023-08-24T01:38:35.178Z,5.18
2023-08-24T01:43:15.357Z,4.80
2023-08-24T01:47:32.334Z,4.90
2023-08-24T01:51:46.585Z,4.97
2023-08-24T01:55:59.129Z,5.20
2023-08-24T02:00:12.372Z,5.22
2023-08-24T02:04:24.902Z,5.20
2023-08-24T02:08:37.446Z,5.10
2023-08-24T02:12:49.980Z,5.57
2023-08-24T02:17:02.517Z,5.55
2023-08-24T02:21:16.237Z,5.20
2023-08-24T02:25:28.794Z,5.22
2023-08-24T02:29:41.280Z,5.43
2023-08-24T02:33:53.903Z,5.45
2023-08-24T02:38:06.398Z,5.47
2023-08-24T02:42:18.890Z,5.18
2023-08-24T02:46:31.788Z,6.13
2023-08-24T02:50:49.454Z,5.50
2023-08-24T02:55:01.960Z,5.50
2023-08-24T02:59:14.611Z,5.32
2023-08-24T03:03:27.304Z,5.38
2023-08-24T03:07:39.843Z,5.50
2023-08-24T03:11:52.319Z,5.70
2023-08-24T03:16:06.899Z,5.55
2023-08-24T03:20:19.666Z,5.22
2023-08-24T03:24:32.957Z,5.35
2023-08-24T03:28:45.687Z,5.88
2023-08-24T03:32:58.389Z,6.07
2023-08-24T03:37:10.914Z,6.15
2023-08-24T03:41:23.974Z,5.85
2023-08-24T03:45:36.499Z,5.50
2023-08-24T03:49:49.105Z,5.50
2023-08-24T03:54:01.754Z,6.38
2023-08-24T03:58:14.264Z,5.68
2023-08-24T04:02:26.797Z,5.68
2023-08-24T04:06:39.330Z,5.85
2023-08-24T04:10:51.824Z,5.82
2023-08-24T04:15:04.852Z,6.13
2023-08-24T04:19:17.370Z,6.15
2023-08-24T04:23:30.268Z,6.57
2023-08-24T04:27:43.461Z,6.35
2023-08-24T04:31:56.555Z,6.32
2023-08-24T04:36:09.124Z,6.10
2023-08-24T04:40:21.567Z,6.53
2023-08-24T04:44:35.059Z,6.70
2023-08-24T04:48:47.635Z,6.90
2023-08-24T04:53:00.139Z,6.50
2023-08-24T04:57:12.633Z,7.03
2023-08-24T05:01:28.798Z,6.72
2023-08-24T05:05:41.361Z,6.72
2023-08-24T05:09:56.030Z,7.00
2023-08-24T05:14:08.511Z,7.85
2023-08-24T05:18:21.109Z,7.95
2023-08-24T05:22:33.628Z,8.70
2023-08-24T05:26:46.130Z,7.82
2023-08-24T05:30:59.339Z,7.13
2023-08-24T05:35:11.921Z,6.72
2023-08-24T05:39:24.511Z,7.47
2023-08-24T05:43:37.037Z,7.70
2023-08-24T05:47:49.804Z,6.95
2023-08-24T05:52:02.537Z,6.95
2023-08-24T05:56:15.081Z,6.82
2023-08-24T06:00:27.675Z,6.72
2023-08-24T06:04:40.770Z,6.10
2023-08-24T06:08:53.360Z,6.35
2023-08-24T06:13:05.877Z,6.40
2023-08-24T06:17:18.425Z,6.07
2023-08-24T06:21:31.428Z,6.40
2023-08-24T06:25:44.778Z,5.80
2023-08-24T06:29:57.264Z,6.07
2023-08-24T06:34:09.780Z,6.15
2023-08-24T06:38:25.048Z,6.50
2023-08-24T06:42:37.821Z,6.40
2023-08-24T06:46:50.312Z,5.75
2023-08-24T06:51:02.957Z,5.43
2023-08-24T06:55:15.650Z,5.85
2023-08-24T06:59:28.283Z,5.53
2023-08-24T07:03:41.227Z,5.13
2023-08-24T07:07:55.567Z,5.28
2023-08-24T07:12:09.095Z,4.85
2023-08-24T07:16:21.617Z,5.30
2023-08-24T07:20:39.243Z,5.28
2023-08-24T07:24:54.196Z,4.47
2023-08-24T07:29:07.419Z,4.95
2023-08-24T07:33:20.003Z,4.80
2023-08-24T07:37:32.571Z,5.22
2023-08-24T07:41:47.255Z,4.63
2023-08-24T07:46:01.401Z,4.93
2023-08-24T07:50:14.067Z,4.70
2023-08-24T07:54:26.950Z,4.60
2023-08-24T07:58:39.524Z,4.22
2023-08-24T08:02:53.193Z,5.00
2023-08-24T08:07:06.426Z,4.50
2023-08-24T08:11:19.309Z,4.53
2023-08-24T08:15:32.481Z,5.05
2023-08-24T08:19:45.723Z,4.55
2023-08-24T08:23:58.234Z,5.00
2023-08-24T08:28:11.702Z,4.53
2023-08-24T08:32:28.915Z,4.90
2023-08-24T08:36:43.529Z,4.32
2023-08-24T08:41:03.086Z,4.55
2023-08-24T08:45:17.833Z,4.43
2023-08-24T08:49:32.996Z,4.85
2023-08-24T08:53:46.193Z,4.43
2023-08-24T08:58:01.359Z,4.15
2023-08-24T09:02:18.918Z,4.13
2023-08-24T09:06:32.293Z,4.65
2023-08-24T09:10:46.096Z,4.10
2023-08-24T09:14:59.716Z,4.20
2023-08-24T09:19:14.847Z,4.20
2023-08-24T09:23:28.870Z,4.32
2023-08-24T09:27:43.556Z,4.63
2023-08-24T09:31:56.678Z,4.00
2023-08-24T09:36:09.833Z,3.97
2023-08-24T09:40:28.444Z,4.40
2023-08-24T09:44:49.083Z,4.30
2023-08-24T09:49:03.464Z,4.20
2023-08-24T09:53:25.122Z,3.90
2023-08-24T09:57:42.346Z,4.10
2023-08-24T10:01:59.075Z,4.03
2023-08-24T10:06:13.779Z,3.95
2023-08-24T10:10:30.292Z,3.97
2023-08-24T10:14:57.596Z,3.65
2023-08-24T10:19:11.555Z,3.42
2023-08-24T10:23:25.529Z,3.80
2023-08-24T10:27:39.417Z,3.55
2023-08-24T10:31:53.268Z,3.47
2023-08-24T10:36:09.802Z,3.83
2023-08-24T10:40:46.306Z,3.83
2023-08-24T10:45:00.437Z,3.57
2023-08-24T10:49:13.762Z,3.83
2023-08-24T10:53:43.712Z,3.80
2023-08-24T10:58:01.864Z,3.90
2023-08-24T11:02:24.152Z,3.72
2023-08-24T11:06:52.231Z,3.70
2023-08-24T11:11:05.512Z,3.75
2023-08-24T11:15:48.379Z,3.30
2023-08-24T11:20:05.065Z,3.47
2023-08-24T11:24:19.750Z,3.58
2023-08-24T11:28:33.654Z,3.35
2023-08-24T11:32:50.324Z,3.35
2023-08-24T11:37:03.727Z,3.33
2023-08-24T11:41:20.402Z,3.35
2023-08-24T11:45:40.854Z,3.25
2023-08-24T11:49:53.601Z,3.05
2023-08-24T11:54:07.147Z,3.70
2023-08-24T11:58:20.251Z,2.90
2023-08-24T12:02:34.480Z,3.50
2023-08-24T12:06:48.692Z,3.58
2023-08-24T12:11:01.901Z,3.35
2023-08-24T12:15:22.401Z,2.95
2023-08-24T12:19:35.604Z,3.05
2023-08-24T12:24:07.822Z,3.10
2023-08-24T12:28:23.204Z,3.40
2023-08-24T12:32:52.419Z,3.10
2023-08-24T12:37:06.497Z,2.90
2023-08-24T12:41:19.603Z,3.00
2023-08-24T12:45:33.730Z,2.90
2023-08-24T12:49:48.377Z,3.03
2023-08-24T12:54:01.582Z,3.15
2023-08-24T12:58:14.759Z,3.00
2023-08-24T13:02:37.301Z,3.05
2023-08-24T13:06:51.713Z,3.42
2023-08-24T13:11:04.798Z,3.38
2023-08-24T13:15:18.337Z,2.75
2023-08-24T13:19:31.932Z,2.95
2023-08-24T13:23:45.090Z,3.45
2023-08-24T13:27:58.411Z,3.40
2023-08-24T13:32:11.564Z,3.60
2023-08-24T13:36:24.724Z,3.83
2023-08-24T13:40:37.784Z,3.30
2023-08-24T13:44:50.873Z,3.33
2023-08-24T13:49:04.493Z,3.30
2023-08-24T13:53:17.618Z,3.60
2023-08-24T13:57:31.933Z,3.47
2023-08-24T14:01:45.127Z,3.25
2023-08-24T14:05:59.259Z,3.58
2023-08-24T14:10:12.475Z,3.22
2023-08-24T14:14:25.675Z,3.50
2023-08-24T14:18:40.007Z,3.42
2023-08-24T14:22:53.228Z,4.13
2023-08-24T14:27:06.805Z,3.95
2023-08-24T14:31:20.199Z,3.50
2023-08-24T14:35:34.489Z,3.83
2023-08-24T14:39:47.578Z,3.53
2023-08-24T14:44:00.772Z,3.40
2023-08-24T14:48:16.097Z,3.95
2023-08-24T14:52:29.431Z,3.85
2023-08-24T14:56:42.913Z,3.80
2023-08-24T15:00:59.854Z,4.10
2023-08-24T15:05:13.846Z,4.15
2023-08-24T15:09:26.907Z,4.20
2023-08-24T15:13:41.040Z,4.43
2023-08-24T15:17:54.104Z,3.97
2023-08-24T15:22:07.275Z,4.25
2023-08-24T15:26:20.460Z,4.93
2023-08-24T15:30:34.100Z,4.28
2023-08-24T15:34:47.313Z,4.20
2023-08-24T15:39:00.444Z,3.75
2023-08-24T15:43:13.633Z,4.00
2023-08-24T15:47:26.332Z,4.20
2023-08-24T15:51:40.632Z,3.72
2023-08-24T15:55:54.302Z,4.50
2023-08-24T16:00:14.768Z,4.15
2023-08-24T16:04:28.494Z,4.63
2023-08-24T16:08:41.588Z,4.38
2023-08-24T16:12:54.759Z,3.92
2023-08-24T16:17:08.414Z,4.20
2023-08-24T16:21:22.933Z,4.47
2023-08-24T16:25:36.142Z,4.57
2023-08-24T16:29:49.258Z,4.03
2023-08-24T16:34:02.374Z,4.90
2023-08-24T16:38:16.225Z,7.22
2023-08-24T16:42:30.208Z,6.32
2023-08-24T16:46:43.427Z,5.03
2023-08-24T16:50:57.151Z,4.72
2023-08-24T16:55:10.333Z,3.95
2023-08-24T16:59:33.209Z,4.90
2023-08-24T17:03:47.354Z,4.75
2023-08-24T17:08:11.770Z,4.53
2023-08-24T17:12:24.969Z,4.82
2023-08-24T17:16:38.143Z,4.55
2023-08-24T17:20:51.655Z,4.63
2023-08-24T17:25:06.337Z,4.78
2023-08-24T17:29:19.483Z,4.18
2023-08-24T17:33:35.657Z,4.72
2023-08-24T17:37:48.831Z,4.47
2023-08-24T17:42:01.938Z,4.95
2023-08-24T17:46:15.126Z,4.30
2023-08-24T17:50:28.232Z,4.28
2023-08-24T17:54:41.324Z,4.55
2023-08-24T17:58:54.382Z,4.22
2023-08-24T18:03:07.643Z,4.70
2023-08-24T18:07:20.594Z,4.93
2023-08-24T18:11:33.692Z,4.43
2023-08-24T18:15:46.827Z,4.05
2023-08-24T18:19:59.971Z,4.22
2023-08-24T18:24:13.320Z,4.22
2023-08-24T18:28:26.817Z,3.90
2023-08-24T18:32:45.630Z,3.80
2023-08-24T18:36:58.229Z,4.25
2023-08-24T18:41:11.307Z,4.32
2023-08-24T18:45:26.706Z,3.55
2023-08-24T18:49:39.912Z,4.20
2023-08-24T18:53:53.063Z,4.00
2023-08-24T18:58:05.993Z,3.70
2023-08-24T19:02:20.280Z,4.00
2023-08-24T19:06:41.636Z,3.83
2023-08-24T19:10:58.369Z,3.70
2023-08-24T19:15:11.943Z,4.07
2023-08-24T19:19:25.001Z,4.10
2023-08-24T19:23:38.959Z,4.22
2023-08-24T19:27:52.528Z,4.45
2023-08-24T19:32:06.026Z,4.60
2023-08-24T19:36:19.114Z,4.30
2023-08-24T19:40:32.204Z,4.68
2023-08-24T19:44:44.708Z,4.57
2023-08-24T19:48:59.217Z,4.85
2023-08-24T19:53:12.295Z,4.60
2023-08-24T19:57:25.352Z,4.63
2023-08-24T20:01:37.931Z,4.43
2023-08-24T20:05:55.349Z,5.05
2023-08-24T20:10:09.638Z,4.88
2023-08-24T20:14:22.155Z,5.03
2023-08-24T20:18:35.616Z,5.38
2023-08-24T20:22:49.277Z,5.93
2023-08-24T20:27:01.823Z,5.07
2023-08-24T20:31:14.290Z,5.47
2023-08-24T20:35:27.430Z,5.25
2023-08-24T20:39:40.034Z,5.50
2023-08-24T20:43:52.547Z,4.32
2023-08-24T20:48:05.623Z,1.40
2023-08-24T20:52:19.949Z,2.42
2023-08-24T20:56:32.604Z,2.58
2023-08-24T21:00:45.267Z,3.22
2023-08-24T21:04:57.814Z,2.40
2023-08-24T21:09:11.078Z,2.40
2023-08-24T21:13:23.583Z,2.55
2023-08-24T21:17:36.220Z,2.60
2023-08-24T21:21:49.465Z,2.58
2023-08-24T21:26:02.080Z,2.42
2023-08-24T21:30:14.630Z,1.92
2023-08-24T21:34:27.157Z,2.92
2023-08-24T21:38:40.430Z,2.70
2023-08-24T21:42:53.055Z,3.13
2023-08-24T21:47:05.720Z,2.72
2023-08-24T21:51:18.439Z,2.33
2023-08-24T21:55:31.294Z,2.55
2023-08-24T21:59:45.405Z,2.60
2023-08-24T22:03:57.960Z,2.80
2023-08-24T22:08:10.540Z,2.28
2023-08-24T22:12:23.046Z,3.13
2023-08-24T22:16:35.793Z,2.80
2023-08-24T22:20:48.899Z,2.33
2023-08-24T22:25:01.339Z,2.63
2023-08-24T22:29:14.127Z,2.92
2023-08-24T22:33:26.569Z,2.40
2023-08-24T22:37:39.030Z,2.22
2023-08-24T22:41:51.537Z,2.13
2023-08-24T22:46:05.137Z,2.45
2023-08-24T22:50:17.744Z,2.35
2023-08-24T22:54:30.291Z,2.50
2023-08-24T22:58:42.929Z,2.35
2023-08-24T23:02:55.694Z,2.60
2023-08-24T23:07:09.564Z,2.22
2023-08-24T23:11:22.071Z,2.40
2023-08-24T23:15:34.614Z,2.60
2023-08-24T23:19:47.364Z,2.38
2023-08-24T23:24:08.132Z,2.20
2023-08-24T23:28:29.911Z,2.40
2023-08-24T23:32:42.422Z,2.25
2023-08-24T23:36:55.129Z,2.45
2023-08-24T23:41:07.749Z,2.53
2023-08-24T23:45:20.335Z,2.25
2023-08-24T23:49:32.856Z,2.00
2023-08-24T23:53:45.486Z,1.77
2023-08-24T23:57:58.781Z,2.20
